createdAt,value
2024-03-12T00:00:15.862Z,0.50
2024-03-12T00:05:21.274Z,0.17
2024-03-12T00:10:22.872Z,0.75
2024-03-12T00:15:25.492Z,1.05
2024-03-12T00:20:34.907Z,0.47
2024-03-12T00:25:38.184Z,0.22
2024-03-12T00:30:42.896Z,1.30
2024-03-12T00:35:47.362Z,1.65
2024-03-12T00:40:50.934Z,0.30
2024-03-12T00:45:54.321Z,0.32
2024-03-12T00:50:56.697Z,0.13
2024-03-12T00:55:59.900Z,0.75
2024-03-12T01:01:01.922Z,0.73
2024-03-12T01:06:03.721Z,0.10
2024-03-12T01:11:06.824Z,0.17
2024-03-12T01:16:08.566Z,0.30
2024-03-12T01:21:10.242Z,0.20
2024-03-12T01:26:11.836Z,0.60
2024-03-12T01:31:13.529Z,0.30
2024-03-12T01:36:22.252Z,0.30
2024-03-12T01:41:24.499Z,0.28
2024-03-12T01:46:30.372Z,0.10
2024-03-12T01:51:33.005Z,0.10
2024-03-12T01:56:34.612Z,1.10
2024-03-12T02:01:37.878Z,0.95
2024-03-12T02:06:39.983Z,0.22
2024-03-12T02:11:41.689Z,0.93
2024-03-12T02:16:44.016Z,0.20
2024-03-12T02:21:46.191Z,0.40
2024-03-12T02:26:47.936Z,1.77
2024-03-12T02:31:49.537Z,0.47
2024-03-12T02:36:51.218Z,0.40
2024-03-12T02:41:52.825Z,0.90
2024-03-12T02:46:55.911Z,1.23
2024-03-12T02:51:58.843Z,0.50
2024-03-12T02:57:00.644Z,0.30
2024-03-12T03:02:02.361Z,0.40
2024-03-12T03:07:05.687Z,0.20
2024-03-12T03:12:07.790Z,0.10
2024-03-12T03:17:09.538Z,0.28
2024-03-12T03:22:11.191Z,0.52
2024-03-12T03:27:12.900Z,0.50
2024-03-12T03:32:14.593Z,0.57
2024-03-12T03:37:16.266Z,0.55
2024-03-12T03:42:17.904Z,0.65
2024-03-12T03:47:19.571Z,0.25
2024-03-12T03:52:21.318Z,0.32
2024-03-12T03:57:22.920Z,0.30
2024-03-12T04:02:24.661Z,0.45
2024-03-12T04:07:26.587Z,0.30
2024-03-12T04:12:28.291Z,0.30
2024-03-12T04:17:29.945Z,1.05
2024-03-12T04:22:31.568Z,0.20
2024-03-12T04:27:33.253Z,1.38
2024-03-12T04:32:34.921Z,0.65
2024-03-12T04:37:37.014Z,1.45
2024-03-12T04:42:39.585Z,1.20
2024-03-12T04:47:43.270Z,0.30
2024-03-12T04:52:45.242Z,0.57
2024-03-12T04:57:47.273Z,1.85
2024-03-12T05:02:52.476Z,0.38
2024-03-12T05:07:54.196Z,0.20
2024-03-12T05:12:56.307Z,0.98
2024-03-12T05:17:58.289Z,0.43
2024-03-12T05:22:59.953Z,0.25
2024-03-12T05:28:05.473Z,0.47
2024-03-12T05:33:11.515Z,0.55
2024-03-12T05:38:13.382Z,1.38
2024-03-12T05:43:33.949Z,1.23
2024-03-12T05:48:35.721Z,0.50
2024-03-12T05:53:38.308Z,0.60
2024-03-12T05:58:39.949Z,0.88
2024-03-12T06:03:42.010Z,3.00
2024-03-12T06:08:46.282Z,1.10
2024-03-12T06:13:48.980Z,1.45
2024-03-12T06:18:50.681Z,0.40
2024-03-12T06:23:55.014Z,0.60
2024-03-12T06:28:57.199Z,0.60
2024-03-12T06:34:00.954Z,1.00
2024-03-12T06:39:02.619Z,2.35
2024-03-12T06:44:09.090Z,1.55
2024-03-12T06:49:13.614Z,0.60
2024-03-12T06:54:15.816Z,2.63
2024-03-12T06:59:17.476Z,1.35
2024-03-12T07:04:24.739Z,1.33
2024-03-12T07:09:32.359Z,1.25
2024-03-12T07:14:41.703Z,1.88
2024-03-12T07:19:44.354Z,1.58
2024-03-12T07:24:46.076Z,3.38
2024-03-12T07:29:48.598Z,1.75
2024-03-12T07:34:50.933Z,1.48
2024-03-12T07:39:52.690Z,2.22
2024-03-12T07:44:57.572Z,3.03
2024-03-12T07:50:01.222Z,1.20
2024-03-12T07:55:07.304Z,0.95
2024-03-12T08:00:27.287Z,1.20
2024-03-12T08:05:32.181Z,3.30
2024-03-12T08:10:35.779Z,2.20
2024-03-12T08:15:38.502Z,1.85
2024-03-12T08:20:40.187Z,1.75
2024-03-12T08:25:54.701Z,2.33
2024-03-12T08:36:10.285Z,4.70
2024-03-12T08:41:11.908Z,2.83
2024-03-12T08:46:13.555Z,0.85
2024-03-12T08:51:15.217Z,2.25
2024-03-12T08:56:16.909Z,1.55
2024-03-12T09:01:19.496Z,0.68
2024-03-12T09:06:21.688Z,2.15
2024-03-12T09:11:23.331Z,0.90
2024-03-12T09:16:25.073Z,4.15
2024-03-12T09:21:27.789Z,1.90
2024-03-12T09:26:29.835Z,3.05
2024-03-12T09:31:33.106Z,2.10
2024-03-12T09:36:35.252Z,2.67
2024-03-12T09:41:39.822Z,2.35
2024-03-12T09:46:42.426Z,1.65
2024-03-12T09:51:44.165Z,1.02
2024-03-12T09:56:46.696Z,0.70
2024-03-12T10:01:48.833Z,3.42
2024-03-12T10:06:50.922Z,0.93
2024-03-12T10:11:52.537Z,1.88
2024-03-12T10:17:10.861Z,1.05
2024-03-12T10:22:20.857Z,1.40
2024-03-12T10:27:22.694Z,0.50
2024-03-12T10:32:29.202Z,1.25
2024-03-12T10:37:36.321Z,1.23
2024-03-12T10:42:38.106Z,1.27
2024-03-12T10:47:39.847Z,0.88
2024-03-12T10:52:41.719Z,2.72
2024-03-12T10:57:44.161Z,0.70
2024-03-12T11:02:46.153Z,4.47
2024-03-12T11:07:48.636Z,0.77
2024-03-12T11:12:50.379Z,2.75
2024-03-12T11:17:52.995Z,0.68
2024-03-12T11:22:57.579Z,1.13
2024-03-12T11:28:20.604Z,2.85
2024-03-12T11:33:43.704Z,0.60
2024-03-12T11:38:47.627Z,1.00
2024-03-12T11:43:50.070Z,0.52
2024-03-12T11:48:53.370Z,0.65
2024-03-12T11:53:55.209Z,0.73
2024-03-12T11:59:03.105Z,1.35
2024-03-12T12:04:13.553Z,1.45
2024-03-12T12:09:15.469Z,2.42
2024-03-12T12:14:18.659Z,2.08
2024-03-12T12:19:28.044Z,1.52
2024-03-12T12:24:34.058Z,0.73
2024-03-12T12:29:36.276Z,3.38
2024-03-12T12:34:38.189Z,0.68
2024-03-12T12:39:47.590Z,0.63
2024-03-12T12:44:55.210Z,1.27
2024-03-12T12:50:00.276Z,0.73
2024-03-12T12:55:02.239Z,0.63
2024-03-12T13:00:16.557Z,2.03
2024-03-12T13:05:24.853Z,0.50
2024-03-12T13:10:28.200Z,4.10
2024-03-12T13:15:35.124Z,0.50
2024-03-12T13:20:37.053Z,1.55
2024-03-12T13:25:38.872Z,0.85
2024-03-12T13:30:41.658Z,0.50
2024-03-12T13:35:44.996Z,0.50
2024-03-12T13:40:46.869Z,0.65
2024-03-12T13:45:49.946Z,5.65
2024-03-12T13:50:57.984Z,1.08
2024-03-12T13:56:01.376Z,2.30
2024-03-12T14:01:05.538Z,3.50
2024-03-12T14:06:10.582Z,0.25
2024-03-12T14:11:12.492Z,0.85
2024-03-12T14:16:14.390Z,4.32
2024-03-12T14:21:16.215Z,0.20
2024-03-12T14:26:18.252Z,0.43
2024-03-12T14:31:20.047Z,0.50
2024-03-12T14:36:21.783Z,0.30
2024-03-12T14:41:24.171Z,0.75
2024-03-12T14:46:25.991Z,1.85
2024-03-12T14:51:28.106Z,0.38
2024-03-12T14:56:30.017Z,1.35
2024-03-12T15:01:31.784Z,0.80
2024-03-12T15:06:33.826Z,0.50
2024-03-12T15:11:35.602Z,0.50
2024-03-12T15:16:37.986Z,0.60
2024-03-12T15:21:39.692Z,0.30
2024-03-12T15:26:41.527Z,0.30
2024-03-12T15:31:46.587Z,0.43
2024-03-12T15:36:50.885Z,3.83
2024-03-12T15:41:52.783Z,0.25
2024-03-12T15:46:57.425Z,0.68
2024-03-12T15:51:59.868Z,2.13
2024-03-12T15:57:01.552Z,0.43
2024-03-12T16:02:03.872Z,4.32
2024-03-12T16:07:05.611Z,0.73
2024-03-12T16:12:07.587Z,0.57
2024-03-12T16:17:09.812Z,2.90
2024-03-12T16:22:11.643Z,0.77
2024-03-12T16:27:14.203Z,0.50
2024-03-12T16:32:16.984Z,1.10
2024-03-12T16:37:19.671Z,1.55
2024-03-12T16:42:22.140Z,3.90
2024-03-12T16:47:23.854Z,1.10
2024-03-12T16:52:25.526Z,2.00
2024-03-12T16:57:28.519Z,1.58
2024-03-12T17:02:43.052Z,1.88
2024-03-12T17:07:49.685Z,3.15
2024-03-12T17:12:51.941Z,2.45
2024-03-12T17:17:54.278Z,0.55
2024-03-12T17:22:56.523Z,0.45
2024-03-12T17:27:58.536Z,0.55
2024-03-12T17:33:02.123Z,1.17
2024-03-12T17:38:04.488Z,7.50
2024-03-12T17:43:07.119Z,2.08
2024-03-12T17:48:10.188Z,1.65
2024-03-12T17:53:12.724Z,0.88
2024-03-12T17:58:17.399Z,1.05
2024-03-12T18:03:21.021Z,1.63
2024-03-12T18:08:26.731Z,2.10
2024-03-12T18:13:29.574Z,2.60
2024-03-12T18:18:31.825Z,3.08
2024-03-12T18:23:33.635Z,3.28
2024-03-12T18:28:36.904Z,2.60
2024-03-12T18:33:38.512Z,5.70
2024-03-12T18:38:40.985Z,3.33
2024-03-12T18:43:42.663Z,2.80
2024-03-12T18:48:44.546Z,2.88
2024-03-12T18:53:46.550Z,4.45
2024-03-12T18:58:48.534Z,8.13
2024-03-12T19:03:50.640Z,2.70
2024-03-12T19:08:52.589Z,3.15
2024-03-12T19:13:55.777Z,5.57
2024-03-12T19:18:58.068Z,2.42
2024-03-12T19:24:01.696Z,4.70
2024-03-12T19:29:04.146Z,4.60
2024-03-12T19:34:06.118Z,7.13
2024-03-12T19:39:13.101Z,6.53
2024-03-12T19:44:15.137Z,7.60
2024-03-12T19:49:17.078Z,3.13
2024-03-12T19:54:22.100Z,3.40
2024-03-12T19:59:24.512Z,5.10
2024-03-12T20:04:26.190Z,4.60
2024-03-12T20:09:28.434Z,3.92
2024-03-12T20:14:30.477Z,4.05
2024-03-12T20:19:33.191Z,6.20
2024-03-12T20:24:34.969Z,7.55
2024-03-12T20:29:38.704Z,4.68
2024-03-12T20:34:42.633Z,4.65
2024-03-12T20:39:45.621Z,3.70
2024-03-12T20:44:47.359Z,2.78
2024-03-12T20:49:49.053Z,3.40
2024-03-12T20:54:50.889Z,3.80
2024-03-12T20:59:52.634Z,3.95
2024-03-12T21:04:54.260Z,4.55
2024-03-12T21:09:55.917Z,7.90
2024-03-12T21:14:58.861Z,5.00
2024-03-12T21:20:00.528Z,4.05
2024-03-12T21:25:02.153Z,3.92
2024-03-12T21:30:10.078Z,3.05
2024-03-12T21:35:13.123Z,3.20
2024-03-12T21:40:17.419Z,4.35
2024-03-12T21:45:20.433Z,3.30
2024-03-12T21:50:22.260Z,5.13
2024-03-12T21:55:27.075Z,3.80
2024-03-12T22:00:29.845Z,4.00
2024-03-12T22:05:31.572Z,6.07
2024-03-12T22:10:33.230Z,4.78
2024-03-12T22:15:35.316Z,8.88
2024-03-12T22:20:36.932Z,5.75
2024-03-12T22:25:41.891Z,4.53
2024-03-12T22:30:43.528Z,4.03
2024-03-12T22:35:45.658Z,5.15
2024-03-12T22:40:48.113Z,3.40
2024-03-12T22:45:50.288Z,4.35
2024-03-12T22:50:53.119Z,4.00
2024-03-12T22:55:56.729Z,2.83
2024-03-12T23:00:59.882Z,3.70
2024-03-12T23:06:01.770Z,3.45
2024-03-12T23:11:06.063Z,6.63
2024-03-12T23:16:08.046Z,4.43
2024-03-12T23:21:11.517Z,3.58
2024-03-12T23:26:17.650Z,2.97
2024-03-12T23:31:19.996Z,4.38
2024-03-12T23:36:23.232Z,2.67
2024-03-12T23:41:24.951Z,2.80
2024-03-12T23:46:26.843Z,3.97
2024-03-12T23:51:29.779Z,2.85
2024-03-12T23:56:31.447Z,3.20
